Terminal Aerodrome Forecast
Issued by NWS

Home | Current Version | Previous Version | Text Only | Print | Product List | Glossary On
Versions: 1 2 3 4 5 6 7 8 9 10 11 12 13 14 15 16 17 18 19 20 21 22 23 24 25 26 27 28 29 30 31 32 33 34
000
FTUS41 KBOX 241731
TAFACK
TAF
KACK 241731Z 2418/2518 12015G23KT 2SM -RA BR BKN003 OVC045
     FM242100 10009KT 3SM -RA BR OVC003
     FM242300 14009KT 3SM -RA BR OVC003
     FM250100 33008KT 3SM -RA BR OVC003
     FM250700 32015G22KT 3SM -RA BR OVC010
     FM251100 32017G28KT P6SM VCSH OVC010=

USA.gov is the U.S. government's official web portal to all federal, state and local government web resources and services.